createdAt,value
2022-12-28T00:01:52.317Z,13.50
2022-12-28T00:04:19.822Z,12.63
2022-12-28T00:09:15.243Z,10.63
2022-12-28T00:14:10.242Z,13.73
2022-12-28T00:16:40.394Z,8.68
2022-12-28T00:19:13.135Z,9.98
2022-12-28T00:21:41.459Z,10.68
2022-12-28T00:24:14.920Z,9.50
2022-12-28T00:26:42.488Z,9.18
2022-12-28T00:29:10.120Z,8.32
2022-12-28T00:31:38.257Z,9.85
2022-12-28T00:34:06.022Z,7.90
2022-12-28T00:37:09.948Z,11.65
2022-12-28T00:39:22.276Z,8.55
2022-12-28T00:41:49.871Z,6.13
2022-12-28T00:44:17.339Z,9.65
2022-12-28T00:49:12.101Z,14.60
2022-12-28T00:54:07.438Z,9.98
2022-12-28T00:56:34.815Z,10.38
2022-12-28T01:01:30.171Z,8.75
2022-12-28T01:03:59.185Z,9.80
2022-12-28T01:06:28.668Z,14.38
2022-12-28T01:08:58.131Z,8.73
2022-12-28T01:11:30.641Z,12.32
2022-12-28T01:14:01.620Z,7.80
2022-12-28T01:16:32.951Z,12.40
2022-12-28T01:19:02.309Z,11.27
2022-12-28T01:21:32.320Z,12.35
2022-12-28T01:24:03.119Z,9.70
2022-12-28T01:26:32.626Z,11.98
2022-12-28T01:29:00.199Z,14.95
2022-12-28T01:31:28.105Z,9.82
2022-12-28T01:33:55.721Z,11.52
2022-12-28T01:36:25.560Z,9.77
2022-12-28T01:38:57.002Z,15.57
2022-12-28T01:41:27.192Z,12.82
2022-12-28T01:43:55.288Z,10.38
2022-12-28T01:46:50.145Z,10.05
2022-12-28T01:49:29.311Z,12.70
2022-12-28T01:52:17.345Z,15.25
2022-12-28T01:54:48.379Z,11.73
2022-12-28T01:57:17.908Z,8.30
2022-12-28T01:59:54.895Z,9.68
2022-12-28T02:02:23.571Z,12.57
2022-12-28T02:04:53.548Z,9.38
2022-12-28T02:07:36.281Z,17.10
2022-12-28T02:10:44.378Z,6.90
2022-12-28T02:12:54.429Z,10.55
2022-12-28T02:15:23.382Z,16.85
2022-12-28T02:17:51.468Z,8.10
2022-12-28T02:20:19.531Z,10.52
2022-12-28T02:23:31.148Z,9.60
2022-12-28T02:26:32.199Z,12.68
2022-12-28T02:29:24.072Z,11.63
2022-12-28T02:32:02.328Z,9.57
2022-12-28T02:37:18.523Z,9.60
2022-12-28T02:40:18.123Z,7.50
2022-12-28T02:42:46.681Z,10.18
2022-12-28T02:45:52.943Z,11.98
2022-12-28T02:48:39.572Z,9.07
2022-12-28T02:51:07.125Z,16.85
2022-12-28T02:53:52.793Z,12.50
2022-12-28T02:56:31.848Z,12.30
2022-12-28T02:59:26.315Z,16.00
2022-12-28T03:02:16.947Z,16.65
2022-12-28T03:04:57.957Z,12.38
2022-12-28T03:07:53.438Z,9.95
2022-12-28T03:10:29.285Z,14.38
2022-12-28T03:13:45.989Z,12.45
2022-12-28T03:16:28.465Z,8.07
2022-12-28T03:19:22.244Z,11.70
2022-12-28T03:22:12.738Z,11.10
2022-12-28T03:25:01.774Z,14.13
2022-12-28T03:27:49.583Z,12.70
2022-12-28T03:30:40.762Z,14.57
2022-12-28T03:33:11.766Z,17.58
2022-12-28T03:35:58.920Z,13.73
2022-12-28T03:38:32.043Z,9.40
2022-12-28T03:41:09.118Z,10.70
2022-12-28T03:43:54.544Z,9.32
2022-12-28T03:46:36.706Z,9.32
2022-12-28T03:49:04.883Z,17.75
2022-12-28T03:51:33.683Z,12.77
2022-12-28T03:54:07.597Z,15.13
2022-12-28T03:56:35.035Z,11.90
2022-12-28T03:59:04.025Z,13.15
2022-12-28T04:01:39.255Z,13.23
2022-12-28T04:04:07.070Z,11.20
2022-12-28T04:06:34.760Z,16.50
2022-12-28T04:09:03.917Z,9.13
2022-12-28T04:11:33.483Z,8.45
2022-12-28T04:14:10.375Z,10.43
2022-12-28T04:16:40.639Z,7.47
2022-12-28T04:19:13.812Z,12.35
2022-12-28T04:21:41.472Z,14.75
2022-12-28T04:24:08.898Z,15.05
2022-12-28T04:26:37.195Z,18.15
2022-12-28T04:31:31.867Z,8.95
2022-12-28T04:34:06.605Z,14.48
2022-12-28T04:36:39.723Z,10.52
2022-12-28T04:39:11.995Z,12.57
2022-12-28T04:41:40.313Z,13.18
2022-12-28T04:44:07.815Z,15.43
2022-12-28T04:46:35.409Z,13.80
2022-12-28T04:49:02.987Z,12.45
2022-12-28T04:51:30.756Z,6.43
2022-12-28T04:53:58.814Z,16.60
2022-12-28T04:56:27.116Z,13.57
2022-12-28T04:58:59.537Z,16.13
2022-12-28T05:01:27.906Z,13.32
2022-12-28T05:03:58.703Z,15.68
2022-12-28T05:06:28.269Z,9.73
2022-12-28T05:08:57.519Z,14.98
2022-12-28T05:11:28.312Z,8.80
2022-12-28T05:13:57.115Z,15.15
2022-12-28T05:16:26.631Z,13.88
2022-12-28T05:18:56.782Z,15.02
2022-12-28T05:21:28.772Z,17.40
2022-12-28T05:23:57.519Z,15.65
2022-12-28T05:26:29.163Z,19.92
2022-12-28T05:28:58.739Z,12.88
2022-12-28T05:31:26.912Z,18.02
2022-12-28T05:33:54.871Z,10.23
2022-12-28T05:36:25.061Z,14.88
2022-12-28T05:38:53.021Z,12.02
2022-12-28T05:41:23.637Z,12.13
2022-12-28T05:43:51.728Z,13.98
2022-12-28T05:46:22.247Z,11.50
2022-12-28T05:48:49.904Z,9.10
2022-12-28T05:51:20.055Z,18.17
2022-12-28T05:53:48.229Z,11.10
2022-12-28T05:56:18.515Z,12.30
2022-12-28T05:58:52.579Z,12.35
2022-12-28T06:01:22.358Z,12.65
2022-12-28T06:03:58.729Z,13.55
2022-12-28T06:06:27.342Z,19.10
2022-12-28T06:08:55.093Z,10.15
2022-12-28T06:11:24.630Z,16.00
2022-12-28T06:13:52.545Z,11.25
2022-12-28T06:16:26.202Z,13.60
2022-12-28T06:18:54.238Z,19.67
2022-12-28T06:21:24.817Z,13.55
2022-12-28T06:23:53.835Z,14.88
2022-12-28T06:26:22.260Z,16.27
2022-12-28T06:28:50.534Z,10.02
2022-12-28T06:31:23.562Z,12.77
2022-12-28T06:33:55.078Z,15.93
2022-12-28T06:36:25.499Z,10.30
2022-12-28T06:38:54.510Z,15.23
2022-12-28T06:41:22.839Z,10.68
2022-12-28T06:43:50.724Z,18.10
2022-12-28T06:46:19.879Z,10.60
2022-12-28T06:48:47.656Z,15.43
2022-12-28T06:51:23.613Z,14.32
2022-12-28T06:53:52.831Z,14.15
2022-12-28T06:56:23.880Z,9.38
2022-12-28T06:58:58.432Z,9.68
2022-12-28T07:01:33.291Z,15.52
2022-12-28T07:04:02.533Z,17.95
2022-12-28T07:06:30.667Z,10.05
2022-12-28T07:09:00.209Z,9.35
2022-12-28T07:11:29.199Z,14.40
2022-12-28T07:13:57.613Z,15.48
2022-12-28T07:16:26.962Z,11.80
2022-12-28T07:18:55.125Z,14.38
2022-12-28T07:21:28.327Z,8.52
2022-12-28T07:23:56.044Z,9.85
2022-12-28T07:26:26.261Z,12.13
2022-12-28T07:28:55.910Z,12.80
2022-12-28T07:31:38.363Z,8.45
2022-12-28T07:34:12.221Z,10.20
2022-12-28T07:36:39.695Z,16.45
2022-12-28T07:39:07.213Z,12.55
2022-12-28T07:44:06.698Z,12.05
2022-12-28T07:46:36.391Z,11.07
2022-12-28T07:49:04.610Z,14.63
2022-12-28T07:51:35.143Z,13.80
2022-12-28T07:54:03.798Z,11.07
2022-12-28T07:59:01.457Z,12.73
2022-12-28T08:01:32.000Z,13.43
2022-12-28T08:04:02.614Z,7.88
2022-12-28T08:06:33.219Z,6.88
2022-12-28T08:09:01.421Z,12.10
2022-12-28T08:11:31.162Z,12.15
2022-12-28T08:13:59.899Z,10.38
2022-12-28T08:16:29.622Z,8.98
2022-12-28T08:19:02.440Z,8.95
2022-12-28T08:21:35.166Z,12.23
2022-12-28T08:24:03.575Z,11.00
2022-12-28T08:26:36.666Z,6.72
2022-12-28T08:29:07.315Z,7.38
2022-12-28T08:31:38.318Z,9.70
2022-12-28T08:34:07.847Z,10.00
2022-12-28T08:36:35.509Z,8.05
2022-12-28T08:39:03.563Z,13.10
2022-12-28T08:41:31.507Z,7.05
2022-12-28T08:43:59.548Z,10.60
2022-12-28T08:46:33.044Z,14.20
2022-12-28T08:49:01.445Z,9.48
2022-12-28T08:51:36.483Z,7.38
2022-12-28T08:54:04.393Z,11.95
2022-12-28T08:56:34.667Z,9.80
2022-12-28T08:59:03.643Z,14.30
2022-12-28T09:01:40.851Z,7.35
2022-12-28T09:04:14.874Z,12.93
2022-12-28T09:06:42.964Z,12.68
2022-12-28T09:09:13.019Z,9.45
2022-12-28T09:11:41.188Z,12.05
2022-12-28T09:14:15.701Z,11.32
2022-12-28T09:16:48.581Z,11.70
2022-12-28T09:19:16.133Z,17.35
2022-12-28T09:21:45.391Z,12.60
2022-12-28T09:24:13.509Z,14.75
2022-12-28T09:26:41.013Z,15.65
2022-12-28T09:29:11.549Z,17.65
2022-12-28T09:31:40.653Z,22.60
2022-12-28T09:36:59.852Z,15.70
2022-12-28T09:39:27.783Z,13.75
2022-12-28T09:42:02.466Z,13.23
2022-12-28T09:44:30.007Z,14.50
2022-12-28T09:46:57.669Z,14.63
2022-12-28T09:49:33.641Z,17.63
2022-12-28T09:52:09.139Z,15.35
2022-12-28T09:54:36.698Z,14.88
2022-12-28T09:57:04.714Z,8.25
2022-12-28T09:59:36.046Z,16.77
2022-12-28T10:02:04.971Z,11.80
2022-12-28T10:04:32.584Z,12.70
2022-12-28T10:07:02.224Z,13.30
2022-12-28T10:09:33.420Z,20.92
2022-12-28T10:12:12.877Z,15.88
2022-12-28T10:14:40.701Z,13.27
2022-12-28T10:17:12.016Z,13.05
2022-12-28T10:19:40.036Z,15.27
2022-12-28T10:22:11.601Z,14.00
2022-12-28T10:24:40.687Z,12.10
2022-12-28T10:27:21.087Z,17.23
2022-12-28T10:29:51.463Z,16.60
2022-12-28T10:32:19.538Z,19.00
2022-12-28T10:34:59.005Z,12.63
2022-12-28T10:37:30.898Z,11.45
2022-12-28T10:40:01.805Z,16.98
2022-12-28T10:42:40.379Z,21.13
2022-12-28T10:45:18.136Z,11.98
2022-12-28T10:47:54.366Z,15.13
2022-12-28T10:50:43.334Z,16.48
2022-12-28T10:53:18.613Z,13.20
2022-12-28T10:55:46.599Z,15.63
2022-12-28T10:58:31.741Z,10.80
2022-12-28T11:01:15.918Z,8.82
2022-12-28T11:03:57.374Z,13.68
2022-12-28T11:06:32.721Z,13.45
2022-12-28T11:09:14.237Z,13.52
2022-12-28T11:11:43.453Z,12.25
2022-12-28T11:14:26.115Z,14.85
2022-12-28T11:16:53.842Z,12.20
2022-12-28T11:19:22.888Z,10.77
2022-12-28T11:21:52.177Z,17.42
2022-12-28T11:24:25.763Z,17.83
2022-12-28T11:26:53.471Z,12.10
2022-12-28T11:29:20.959Z,9.90
2022-12-28T11:32:05.385Z,21.35
2022-12-28T11:34:33.006Z,11.27
2022-12-28T11:37:01.141Z,13.90
2022-12-28T11:39:28.529Z,13.70
2022-12-28T11:44:45.592Z,11.95
2022-12-28T11:49:45.418Z,8.95
2022-12-28T11:52:24.159Z,12.30
2022-12-28T11:54:55.848Z,9.77
2022-12-28T11:57:54.328Z,9.10
2022-12-28T12:00:25.027Z,13.80
2022-12-28T12:02:53.837Z,12.35
2022-12-28T12:05:36.732Z,16.50
2022-12-28T12:08:16.600Z,15.02
2022-12-28T12:10:46.367Z,9.82
2022-12-28T12:13:48.997Z,9.23
2022-12-28T12:16:38.479Z,13.65
2022-12-28T12:19:08.106Z,11.15
2022-12-28T12:21:41.719Z,13.45
2022-12-28T12:24:18.543Z,8.23
2022-12-28T12:26:53.715Z,8.82
2022-12-28T12:29:24.854Z,15.45
2022-12-28T12:32:03.923Z,13.40
2022-12-28T12:35:08.102Z,12.60
2022-12-28T12:37:54.578Z,13.32
2022-12-28T12:40:41.975Z,8.10
2022-12-28T12:43:41.430Z,9.95
2022-12-28T12:46:30.238Z,11.23
2022-12-28T12:49:28.470Z,8.15
2022-12-28T12:52:49.900Z,11.25
2022-12-28T12:55:44.733Z,7.53
2022-12-28T12:58:28.031Z,10.70
2022-12-28T13:00:58.947Z,6.75
2022-12-28T13:03:43.681Z,7.88
2022-12-28T13:06:15.758Z,7.22
2022-12-28T13:08:47.527Z,10.98
2022-12-28T13:11:17.145Z,8.82
2022-12-28T13:13:48.015Z,7.03
2022-12-28T13:16:21.967Z,6.82
2022-12-28T13:19:01.330Z,5.13
2022-12-28T13:21:39.593Z,8.02
2022-12-28T13:24:28.110Z,8.00
2022-12-28T13:26:58.938Z,6.63
2022-12-28T13:29:31.117Z,6.80
2022-12-28T13:31:58.645Z,6.95
2022-12-28T13:34:35.280Z,7.43
2022-12-28T13:37:14.063Z,7.68
2022-12-28T13:39:42.572Z,5.50
2022-12-28T13:42:32.527Z,5.20
2022-12-28T13:45:07.979Z,7.03
2022-12-28T13:47:41.033Z,10.43
2022-12-28T13:50:16.477Z,9.57
2022-12-28T13:52:59.185Z,2.88
2022-12-28T13:55:37.730Z,4.93
2022-12-28T13:58:12.473Z,4.85
2022-12-28T14:00:45.553Z,3.55
2022-12-28T14:03:13.996Z,3.15
2022-12-28T14:05:48.043Z,3.45
2022-12-28T14:08:16.726Z,3.97
2022-12-28T14:10:47.102Z,5.78
2022-12-28T14:13:15.811Z,2.00
2022-12-28T14:15:43.981Z,4.80
2022-12-28T14:18:15.804Z,4.35
2022-12-28T14:20:51.938Z,2.38
2022-12-28T14:23:32.504Z,2.08
2022-12-28T14:26:03.910Z,3.40
2022-12-28T14:28:34.564Z,2.90
2022-12-28T14:31:04.788Z,6.00
2022-12-28T14:33:36.149Z,2.42
2022-12-28T14:36:07.419Z,4.80
2022-12-28T14:38:40.254Z,2.05
2022-12-28T14:41:17.143Z,5.07
2022-12-28T14:43:53.405Z,5.43
2022-12-28T14:46:33.036Z,1.20
2022-12-28T14:49:21.342Z,3.25
2022-12-28T14:51:48.974Z,4.43
2022-12-28T14:54:18.017Z,3.85
2022-12-28T14:56:51.812Z,5.78
2022-12-28T14:59:46.936Z,3.40
2022-12-28T15:02:33.940Z,3.00
2022-12-28T15:05:03.278Z,1.40
2022-12-28T15:07:33.598Z,0.77
2022-12-28T15:10:01.211Z,2.25
2022-12-28T15:14:56.051Z,0.95
2022-12-28T15:17:26.943Z,2.38
2022-12-28T15:19:59.052Z,2.53
2022-12-28T15:22:26.598Z,3.55
2022-12-28T15:24:54.199Z,1.20
2022-12-28T15:27:21.683Z,2.63
2022-12-28T15:30:05.909Z,2.15
2022-12-28T15:32:35.301Z,2.25
2022-12-28T15:35:03.424Z,3.05
2022-12-28T15:37:30.913Z,3.88
2022-12-28T15:42:25.595Z,4.00
2022-12-28T15:47:21.671Z,5.40
2022-12-28T15:49:49.107Z,5.90
2022-12-28T15:52:16.587Z,10.68
2022-12-28T15:54:47.361Z,5.90
2022-12-28T15:57:15.952Z,4.75
2022-12-28T15:59:43.552Z,2.90
2022-12-28T16:02:11.977Z,7.10
2022-12-28T16:04:39.643Z,3.80
2022-12-28T16:07:07.257Z,8.25
2022-12-28T16:09:34.722Z,4.32
2022-12-28T16:12:02.711Z,6.97
2022-12-28T16:14:30.109Z,6.63
2022-12-28T16:16:57.807Z,6.72
2022-12-28T16:19:25.399Z,5.60
2022-12-28T16:21:53.031Z,6.38
2022-12-28T16:24:20.867Z,3.30
2022-12-28T16:26:48.611Z,4.72
2022-12-28T16:29:16.168Z,4.25
2022-12-28T16:31:43.872Z,5.22
2022-12-28T16:34:14.487Z,8.52
2022-12-28T16:36:42.921Z,6.00
2022-12-28T16:39:14.711Z,6.28
2022-12-28T16:41:42.686Z,6.30
2022-12-28T16:44:15.721Z,3.45
2022-12-28T16:46:43.671Z,5.75
2022-12-28T16:49:11.440Z,6.47
2022-12-28T16:51:41.258Z,3.92
2022-12-28T16:54:08.846Z,4.50
2022-12-28T16:56:36.408Z,4.03
2022-12-28T16:59:04.006Z,3.22
2022-12-28T17:01:31.589Z,3.20
2022-12-28T17:04:04.039Z,0.70
2022-12-28T17:06:32.079Z,4.10
2022-12-28T17:09:02.158Z,3.33
2022-12-28T17:11:29.934Z,2.50
2022-12-28T17:14:05.395Z,3.72
2022-12-28T17:16:33.393Z,4.13
2022-12-28T17:19:01.731Z,1.50
2022-12-28T17:21:30.735Z,5.25
2022-12-28T17:23:58.843Z,5.75
2022-12-28T17:26:26.859Z,8.95
2022-12-28T17:28:54.596Z,7.43
2022-12-28T17:31:23.474Z,5.30
2022-12-28T17:33:54.268Z,6.25
2022-12-28T17:36:22.471Z,6.68
2022-12-28T17:38:50.984Z,10.70
2022-12-28T17:41:23.818Z,8.05
2022-12-28T17:44:01.679Z,8.63
2022-12-28T17:46:30.638Z,7.57
2022-12-28T17:48:59.711Z,11.57
2022-12-28T17:51:29.296Z,13.75
2022-12-28T17:53:57.749Z,15.07
2022-12-28T17:56:25.619Z,12.43
2022-12-28T17:58:58.347Z,14.77
2022-12-28T18:01:27.982Z,10.98
2022-12-28T18:03:56.753Z,12.50
2022-12-28T18:06:24.762Z,13.43
2022-12-28T18:08:52.229Z,8.68
2022-12-28T18:11:19.979Z,13.25
2022-12-28T18:13:48.044Z,10.10
2022-12-28T18:16:17.951Z,15.90
2022-12-28T18:18:45.765Z,13.70
2022-12-28T18:21:21.053Z,18.10
2022-12-28T18:23:51.957Z,14.63
2022-12-28T18:26:26.461Z,15.25
2022-12-28T18:28:57.320Z,15.27
2022-12-28T18:31:25.433Z,17.17
2022-12-28T18:33:53.353Z,19.23
2022-12-28T18:36:20.840Z,18.23
2022-12-28T18:38:48.974Z,22.23
2022-12-28T18:41:20.909Z,20.58
2022-12-28T18:43:49.666Z,21.88
2022-12-28T18:46:17.914Z,19.08
2022-12-28T18:48:45.434Z,15.68
2022-12-28T18:53:42.313Z,23.23
2022-12-28T18:56:14.566Z,20.42
2022-12-28T18:58:42.600Z,17.38
2022-12-28T19:01:32.380Z,20.13
2022-12-28T19:04:01.059Z,19.77
2022-12-28T19:06:30.371Z,18.15
2022-12-28T19:09:00.003Z,18.00
2022-12-28T19:11:28.297Z,19.65
2022-12-28T19:13:56.630Z,23.88
2022-12-28T19:16:30.573Z,22.75
2022-12-28T19:19:00.048Z,33.03
2022-12-28T19:21:29.150Z,27.13
2022-12-28T19:24:03.278Z,28.00
2022-12-28T19:26:32.809Z,35.80
2022-12-28T19:29:00.388Z,25.85
2022-12-28T19:31:28.271Z,25.23
2022-12-28T19:33:56.025Z,23.63
2022-12-28T19:36:24.135Z,27.90
2022-12-28T19:38:56.189Z,28.75
2022-12-28T19:41:24.523Z,30.83
2022-12-28T19:43:54.007Z,23.48
2022-12-28T19:46:24.823Z,25.73
2022-12-28T19:48:55.685Z,23.58
2022-12-28T19:51:30.218Z,24.77
2022-12-28T19:54:02.676Z,26.00
2022-12-28T19:56:30.224Z,20.27
2022-12-28T19:59:05.110Z,25.77
2022-12-28T20:01:34.383Z,22.98
2022-12-28T20:04:12.768Z,23.63
2022-12-28T20:06:45.419Z,25.02
2022-12-28T20:09:14.886Z,27.45
2022-12-28T20:11:44.830Z,20.52
2022-12-28T20:14:23.208Z,26.77
2022-12-28T20:16:52.451Z,20.38
2022-12-28T20:21:49.529Z,28.10
2022-12-28T20:24:17.948Z,17.88
2022-12-28T20:26:48.378Z,19.02
2022-12-28T20:29:16.525Z,20.02
2022-12-28T20:31:44.753Z,19.15
2022-12-28T20:34:12.482Z,14.57
2022-12-28T20:36:40.151Z,17.92
2022-12-28T20:39:07.627Z,17.27
2022-12-28T20:41:53.655Z,12.68
2022-12-28T20:44:30.371Z,13.03
2022-12-28T20:46:59.302Z,11.60
2022-12-28T20:49:27.589Z,6.18
2022-12-28T20:51:55.557Z,9.82
2022-12-28T20:54:23.850Z,10.48
2022-12-28T20:56:55.375Z,10.13
2022-12-28T20:59:25.213Z,9.77
2022-12-28T21:01:53.708Z,4.70
2022-12-28T21:04:25.269Z,4.00
2022-12-28T21:06:54.173Z,7.25
2022-12-28T21:09:24.767Z,8.10
2022-12-28T21:11:52.305Z,7.00
2022-12-28T21:14:19.918Z,11.63
2022-12-28T21:16:47.450Z,10.45
2022-12-28T21:19:14.909Z,8.50
2022-12-28T21:24:09.593Z,12.38
2022-12-28T21:26:37.350Z,14.00
2022-12-28T21:29:04.843Z,10.25
2022-12-28T21:31:32.472Z,18.00
2022-12-28T21:33:59.901Z,16.23
2022-12-28T21:36:27.720Z,21.77
2022-12-28T21:38:55.258Z,15.32
2022-12-28T21:41:41.569Z,13.18
2022-12-28T21:44:12.483Z,15.93
2022-12-28T21:46:40.311Z,14.15
2022-12-28T21:49:08.527Z,16.90
2022-12-28T21:51:38.464Z,16.00
2022-12-28T21:54:17.264Z,13.20
2022-12-28T21:56:47.080Z,16.92
2022-12-28T21:59:14.603Z,13.95
2022-12-28T22:02:01.840Z,17.90
2022-12-28T22:04:48.111Z,13.40
2022-12-28T22:07:19.589Z,15.25
2022-12-28T22:10:05.883Z,18.13
2022-12-28T22:12:34.693Z,15.35
2022-12-28T22:15:36.115Z,18.20
2022-12-28T22:18:36.658Z,15.43
2022-12-28T22:21:04.529Z,14.73
2022-12-28T22:23:34.838Z,15.70
2022-12-28T22:26:03.018Z,16.30
2022-12-28T22:28:30.911Z,13.80
2022-12-28T22:30:58.524Z,13.23
2022-12-28T22:33:25.993Z,18.10
2022-12-28T22:35:54.651Z,20.23
2022-12-28T22:38:22.044Z,16.98
2022-12-28T22:43:27.167Z,14.40
2022-12-28T22:48:42.204Z,17.83
2022-12-28T22:51:12.445Z,27.90
2022-12-28T22:53:40.381Z,19.80
2022-12-28T22:56:11.770Z,13.02
2022-12-28T22:58:39.285Z,17.23
2022-12-28T23:03:41.285Z,15.30
2022-12-28T23:06:09.962Z,15.23
2022-12-28T23:08:37.685Z,23.52
2022-12-28T23:11:30.391Z,23.75
2022-12-28T23:14:18.242Z,22.45
2022-12-28T23:16:45.923Z,23.42
2022-12-28T23:19:32.321Z,27.23
2022-12-28T23:22:19.109Z,19.10
2022-12-28T23:25:05.319Z,26.63
2022-12-28T23:27:39.121Z,21.02
2022-12-28T23:30:09.886Z,21.92
2022-12-28T23:32:37.374Z,15.77
2022-12-28T23:35:05.178Z,19.17
2022-12-28T23:37:32.770Z,17.88
2022-12-28T23:40:00.387Z,21.15
2022-12-28T23:42:28.260Z,23.42
2022-12-28T23:44:55.776Z,17.67
2022-12-28T23:47:23.204Z,17.98
2022-12-28T23:52:23.773Z,14.95
2022-12-28T23:54:53.235Z,14.40
2022-12-28T23:59:48.609Z,18.45
